Hlavní strana
METAR-TAF:

METAR-TAF

Letiště :

Moskva, Rusko

zeměpisná šířka: 55-30-42N, zeměpisná délka: 037-30-26E, výška: 173 m

Aktuální stav počasí

Zpráva byla vytvořena před 32 minutami, v 03:30 UTC
Severoseverozápadní vítr 4 kt
Teplota 16°C
Vlhkost vzduchu 88%
Tlak 1025 hPa
Viditelnost 10 km a více
Žádná oblačnost pod 1500 m, nevyskytují se cumulonimby.

METAR: UUMO 070330Z 33002MPS CAVOK 16/14 Q1025 R26/090060 NOSIG RMK QFE753/1004

Čas: 07:02 (04:02 UTC)

Předpověď počasí

Zpráva byla vytvořena před 2 hodinami a 15 minutami, v 01:47 UTC
Předpověď platná od 07 v 03 UTC do 07 v 12 UTC
Severoseverozápadní vítr 6 kt s nárazy do 16 kt
Viditelnost 10 km a více
Polojasno ve výšce 4000 ft

TAF: UUMO 070147Z 0703/0712 33003G08MPS 9999 SCT040

Stav a předpovědi počasí z více než 4 000 letišť (zprávy METAR a TAF).

Červené a žluté tečky na mapě představují dostupné meteorologické stanice.

Když kurzor umístíte na tečku, zobrazí se název stanice.

Pak kliknutím zobrazíte stav a předpověď počasí.

Chcete-li změnit mapu, kliknutím na zelené tlačítko se znaménkem +mapu přiblížíte, kliknutím na zelené tlačítko se znaménkem – mapu oddálíte a kliknutím na zelené šipky přejdete na sousední mapy.


METAR-TAF: